Time;durP1;ratioP1;P1;durP2;ratioP2;P2;SDS_P1;SDS_P2;PMS_P1;PMS_P2;Temp;Humidity;BMP_temperature;BMP_pressure;BME280_temperature;BME280_humidity;BME280_pressure;Samples;Min_cycle;Max_cycle;Signal;HPM_P1;HPM_P2
2022/07/05 00:00:49;;;;;;;2.03;1.45;;;18.60;98.40;;;;;;5072631;28;20508;-75
2022/07/05 00:03:14;;;;;;;1.70;1.35;;;18.30;98.40;;;;;;5064211;28;20033;-75
2022/07/05 00:05:40;;;;;;;3.78;1.63;;;18.20;98.90;;;;;;5053071;28;20027;-75
2022/07/05 00:08:06;;;;;;;2.08;1.38;;;18.10;99.30;;;;;;5053306;28;20049;-75
2022/07/05 00:10:33;;;;;;;4.03;1.67;;;18.30;97.40;;;;;;5054612;28;20055;-74
2022/07/05 00:12:58;;;;;;;3.83;1.30;;;18.10;98.20;;;;;;5055422;28;20050;-74
2022/07/05 00:15:24;;;;;;;1.42;1.30;;;18.20;97.40;;;;;;5041786;28;20017;-75
2022/07/05 00:17:50;;;;;;;3.88;1.52;;;18.40;97.00;;;;;;5064289;28;20029;-74
2022/07/05 00:20:15;;;;;;;5.57;1.30;;;18.40;97.10;;;;;;5052295;28;20452;-74
2022/07/05 00:22:42;;;;;;;3.13;1.40;;;18.30;97.90;;;;;;5052857;28;20033;-74
2022/07/05 00:25:07;;;;;;;1.70;1.40;;;18.20;98.30;;;;;;5041825;28;20435;-75
2022/07/05 00:27:33;;;;;;;4.35;1.67;;;18.10;97.80;;;;;;5046630;28;20028;-75
2022/07/05 00:29:59;;;;;;;4.13;1.65;;;18.10;97.60;;;;;;5048802;28;20023;-74
2022/07/05 00:32:24;;;;;;;3.78;1.40;;;18.00;97.90;;;;;;5060834;28;20035;-76
2022/07/05 00:34:50;;;;;;;1.40;1.25;;;18.00;98.30;;;;;;5041507;28;20029;-76
2022/07/05 00:37:16;;;;;;;2.00;1.70;;;17.70;98.80;;;;;;5064930;28;20434;-76
2022/07/05 00:39:42;;;;;;;2.50;1.52;;;17.20;99.80;;;;;;5066351;28;20024;-76
2022/07/05 00:42:08;;;;;;;3.35;1.65;;;17.20;99.90;;;;;;5060536;28;20360;-76
2022/07/05 00:44:35;;;;;;;2.88;1.40;;;17.40;99.80;;;;;;5059413;28;20025;-76
2022/07/05 00:47:03;;;;;;;3.05;1.67;;;17.50;99.80;;;;;;5064582;28;20033;-74
2022/07/05 00:49:29;;;;;;;3.88;1.60;;;17.60;99.30;;;;;;5047167;28;20403;-74
2022/07/05 00:51:55;;;;;;;2.60;1.65;;;17.20;99.80;;;;;;5043335;28;20031;-74
2022/07/05 00:54:21;;;;;;;2.47;1.70;;;17.40;99.80;;;;;;5053751;28;20028;-75
2022/07/05 00:56:47;;;;;;;2.53;1.63;;;17.50;99.90;;;;;;5041881;28;20029;-75
2022/07/05 00:59:13;;;;;;;2.60;1.40;;;17.30;99.90;;;;;;5023407;28;20065;-75
2022/07/05 01:01:40;;;;;;;2.67;1.35;;;17.50;99.90;;;;;;5053137;28;20040;-75
2022/07/05 01:04:06;;;;;;;2.60;1.77;;;17.50;99.90;;;;;;5051263;28;20029;-74
2022/07/05 01:06:32;;;;;;;4.55;1.77;;;17.60;99.90;;;;;;5046857;28;20025;-74
2022/07/05 01:08:59;;;;;;;2.65;1.50;;;17.30;99.90;;;;;;5048393;28;20109;-74
2022/07/05 01:11:25;;;;;;;3.50;1.75;;;17.10;99.90;;;;;;5045486;28;20023;-74
2022/07/05 01:13:50;;;;;;;2.63;1.65;;;17.10;99.90;;;;;;5053195;28;20108;-74
2022/07/05 01:16:16;;;;;;;2.75;1.58;;;17.00;99.90;;;;;;5045710;28;20123;-74
2022/07/05 01:18:43;;;;;;;2.15;1.70;;;16.80;99.90;;;;;;5040925;28;20063;-74
2022/07/05 01:21:13;;;;;;;2.72;1.70;;;16.60;99.90;;;;;;5043909;28;20025;-74
2022/07/05 01:23:39;;;;;;;6.00;1.70;;;16.70;99.90;;;;;;5065058;28;20112;-74
2022/07/05 01:26:07;;;;;;;2.88;1.52;;;16.70;99.90;;;;;;5044281;28;20115;-75
2022/07/05 01:28:33;;;;;;;3.10;1.77;;;16.70;99.90;;;;;;5058228;28;20059;-75
2022/07/05 01:31:01;;;;;;;3.67;1.80;;;16.80;99.90;;;;;;5071096;28;20056;-75
2022/07/05 01:33:28;;;;;;;5.18;1.60;;;16.80;99.90;;;;;;5058734;28;20029;-76
2022/07/05 01:35:54;;;;;;;4.68;2.28;;;16.80;99.90;;;;;;5043854;28;20104;-76
2022/07/05 01:38:20;;;;;;;3.25;1.58;;;17.10;99.90;;;;;;5047326;28;20454;-76
2022/07/05 01:40:45;;;;;;;3.03;1.65;;;17.10;99.90;;;;;;5062354;28;20031;-76
2022/07/05 01:43:12;;;;;;;2.20;1.85;;;17.00;99.90;;;;;;5058031;28;20494;-76
2022/07/05 01:45:41;;;;;;;2.00;1.77;;;16.60;99.90;;;;;;5061177;28;20090;-76
2022/07/05 01:48:12;;;;;;;1.80;1.67;;;16.40;99.90;;;;;;5065180;28;20032;-76
2022/07/05 01:50:47;;;;;;;4.70;1.73;;;16.30;99.90;;;;;;5063130;28;20078;-76
2022/07/05 01:53:22;;;;;;;3.95;2.03;;;16.40;99.90;;;;;;5040400;28;20020;-76
2022/07/05 01:55:49;;;;;;;3.70;1.88;;;16.40;99.90;;;;;;5070821;28;20032;-76
2022/07/05 01:58:15;;;;;;;2.00;1.80;;;16.10;99.90;;;;;;5051588;28;20021;-75
2022/07/05 02:00:50;;;;;;;2.85;1.75;;;16.20;99.90;;;;;;5064309;28;20025;-76
2022/07/05 02:03:16;;;;;;;2.63;1.80;;;16.30;99.90;;;;;;5060405;28;20033;-76
2022/07/05 02:05:43;;;;;;;3.78;1.73;;;16.30;99.90;;;;;;5037763;28;20029;-76
2022/07/05 02:08:10;;;;;;;2.53;1.58;;;16.30;99.90;;;;;;5051485;28;20067;-76
2022/07/05 02:10:37;;;;;;;3.58;1.52;;;16.50;99.90;;;;;;5067245;28;20044;-76
2022/07/05 02:13:03;;;;;;;3.88;1.98;;;16.40;99.90;;;;;;5045504;28;20021;-76
2022/07/05 02:15:37;;;;;;;2.58;1.67;;;16.70;99.90;;;;;;5068652;28;20021;-75
2022/07/05 02:18:04;;;;;;;3.13;1.90;;;16.10;99.90;;;;;;5037568;28;20025;-74
2022/07/05 02:20:31;;;;;;;3.88;1.77;;;15.20;99.90;;;;;;5054475;28;20023;-74
2022/07/05 02:22:57;;;;;;;5.03;1.95;;;15.10;99.90;;;;;;5055215;28;20079;-74
2022/07/05 02:25:23;;;;;;;2.65;1.77;;;15.50;99.90;;;;;;5059483;28;20029;-74
2022/07/05 02:27:50;;;;;;;5.47;2.15;;;15.50;99.90;;;;;;5074986;28;20028;-73
2022/07/05 02:30:15;;;;;;;2.97;1.52;;;15.80;99.90;;;;;;5074324;28;20033;-74
2022/07/05 02:32:41;;;;;;;4.20;1.67;;;15.70;99.90;;;;;;5063641;28;20079;-74
2022/07/05 02:35:09;;;;;;;3.83;1.70;;;15.70;99.90;;;;;;5059672;28;20425;-75
2022/07/05 02:37:34;;;;;;;3.55;1.70;;;15.50;99.90;;;;;;5063380;28;20021;-75
2022/07/05 02:40:00;;;;;;;2.70;1.83;;;15.70;99.90;;;;;;5068392;28;20032;-75
2022/07/05 02:42:25;;;;;;;3.22;1.80;;;15.40;99.90;;;;;;5054528;28;20388;-77
2022/07/05 02:44:51;;;;;;;3.63;2.00;;;15.30;99.90;;;;;;5059301;28;20399;-77
2022/07/05 02:47:16;;;;;;;2.30;1.60;;;15.50;99.90;;;;;;5063626;28;20117;-77
2022/07/05 02:49:42;;;;;;;2.30;1.58;;;15.60;99.90;;;;;;5068357;28;20053;-75
2022/07/05 02:52:08;;;;;;;3.08;1.50;;;15.80;99.90;;;;;;5065090;28;20021;-76
2022/07/05 02:54:33;;;;;;;2.00;1.60;;;15.90;99.90;;;;;;5038994;28;20021;-76
2022/07/05 02:57:00;;;;;;;4.13;1.73;;;15.90;99.90;;;;;;5066141;28;20099;-75
2022/07/05 02:59:25;;;;;;;2.08;1.60;;;15.90;99.90;;;;;;5061125;28;20051;-75
2022/07/05 03:01:51;;;;;;;2.25;1.30;;;15.60;99.90;;;;;;5044475;28;20383;-75
2022/07/05 03:04:17;;;;;;;1.60;1.50;;;15.60;99.90;;;;;;5067720;28;20033;-75
2022/07/05 03:06:42;;;;;;;2.33;1.63;;;15.50;99.90;;;;;;5064830;28;20029;-75
2022/07/05 03:09:08;;;;;;;2.03;1.50;;;15.70;99.90;;;;;;5052739;28;20017;-74
2022/07/05 03:11:33;;;;;;;2.85;1.70;;;15.80;99.90;;;;;;5059048;28;20025;-74
2022/07/05 03:13:59;;;;;;;3.72;1.80;;;15.60;99.90;;;;;;5067597;28;20021;-74
2022/07/05 03:16:25;;;;;;;2.15;1.92;;;15.10;99.90;;;;;;5046555;28;20020;-74
2022/07/05 03:18:51;;;;;;;2.63;1.70;;;15.00;99.90;;;;;;5060593;28;20046;-73
2022/07/05 03:21:16;;;;;;;2.85;1.65;;;15.20;99.90;;;;;;5063640;28;20526;-75
2022/07/05 03:23:42;;;;;;;4.38;1.80;;;15.40;99.90;;;;;;5066706;28;20075;-75
2022/07/05 03:26:08;;;;;;;3.10;1.95;;;15.40;99.90;;;;;;5064333;28;20440;-75
2022/07/05 03:28:33;;;;;;;2.97;1.48;;;15.30;99.90;;;;;;5060355;28;20371;-75
2022/07/05 03:30:59;;;;;;;3.05;1.75;;;15.50;99.90;;;;;;5063590;28;20020;-75
2022/07/05 03:33:25;;;;;;;2.30;1.90;;;15.40;99.90;;;;;;5067250;28;20017;-74
2022/07/05 03:35:50;;;;;;;2.60;1.63;;;15.40;99.90;;;;;;5045847;28;20390;-74
2022/07/05 03:38:16;;;;;;;1.80;1.70;;;15.70;99.90;;;;;;5060500;28;20025;-74
2022/07/05 03:40:42;;;;;;;2.13;1.65;;;15.60;99.90;;;;;;5063260;28;20479;-74
2022/07/05 03:43:07;;;;;;;2.13;1.55;;;15.40;99.90;;;;;;5066962;28;20058;-74
2022/07/05 03:45:33;;;;;;;3.28;1.73;;;15.60;99.90;;;;;;5053604;28;20032;-73
2022/07/05 03:48:00;;;;;;;3.03;1.60;;;15.70;99.90;;;;;;5056826;28;20029;-74
2022/07/05 03:50:26;;;;;;;2.50;1.88;;;15.60;99.90;;;;;;5045078;28;20055;-75
2022/07/05 03:52:52;;;;;;;3.83;1.50;;;15.70;99.90;;;;;;5066809;28;20271;-75
2022/07/05 03:55:17;;;;;;;3.08;1.75;;;15.70;99.90;;;;;;5045296;28;20110;-75
2022/07/05 03:57:43;;;;;;;2.63;1.80;;;15.70;99.90;;;;;;5056966;28;20063;-75
2022/07/05 04:00:09;;;;;;;2.67;1.98;;;15.70;99.90;;;;;;5053255;28;20029;-74
2022/07/05 04:02:35;;;;;;;3.58;1.85;;;15.00;99.90;;;;;;5034955;28;20119;-74
2022/07/05 04:05:00;;;;;;;2.15;1.95;;;14.70;99.90;;;;;;5053202;28;20163;-74
2022/07/05 04:07:26;;;;;;;3.75;2.20;;;14.90;99.90;;;;;;5056374;28;20037;-74
2022/07/05 04:09:51;;;;;;;3.05;2.00;;;15.10;99.90;;;;;;5063529;28;20021;-73
2022/07/05 04:12:17;;;;;;;4.10;2.00;;;15.20;99.90;;;;;;5046871;28;20485;-74
2022/07/05 04:14:43;;;;;;;6.45;2.38;;;15.20;99.90;;;;;;5045587;28;20021;-74
2022/07/05 04:17:08;;;;;;;4.22;1.80;;;15.20;99.90;;;;;;5066351;28;20033;-74
2022/07/05 04:19:34;;;;;;;3.58;1.90;;;15.40;99.90;;;;;;5062752;28;20071;-74
2022/07/05 04:21:59;;;;;;;5.13;1.90;;;15.70;99.90;;;;;;5058891;28;20528;-74
2022/07/05 04:24:25;;;;;;;2.33;1.90;;;15.90;99.90;;;;;;5063609;28;20495;-75
2022/07/05 04:26:51;;;;;;;2.05;1.73;;;15.90;99.90;;;;;;5068832;28;20060;-74
2022/07/05 04:29:16;;;;;;;4.55;1.90;;;15.90;99.90;;;;;;5045669;28;20032;-74
2022/07/05 04:31:42;;;;;;;3.03;1.80;;;15.80;99.90;;;;;;5054819;28;20035;-74
2022/07/05 04:34:08;;;;;;;2.17;1.98;;;16.00;99.90;;;;;;5063272;28;20024;-74
2022/07/05 04:36:34;;;;;;;2.20;1.70;;;16.20;99.90;;;;;;5051846;28;20483;-74
2022/07/05 04:38:59;;;;;;;2.22;1.75;;;16.00;99.90;;;;;;5052684;28;20032;-73
2022/07/05 04:41:25;;;;;;;2.47;1.85;;;16.20;99.90;;;;;;5065401;28;20059;-74
2022/07/05 04:43:50;;;;;;;3.17;1.83;;;16.20;99.90;;;;;;5052444;28;20083;-74
2022/07/05 04:46:16;;;;;;;1.80;1.65;;;16.20;99.90;;;;;;5065957;28;20550;-74
2022/07/05 04:48:42;;;;;;;4.32;1.95;;;16.10;99.90;;;;;;5052578;28;20029;-74
2022/07/05 04:51:07;;;;;;;3.33;1.73;;;16.10;99.90;;;;;;5067121;28;20020;-74
2022/07/05 04:53:33;;;;;;;2.55;1.88;;;16.00;99.90;;;;;;5072294;28;20029;-75
2022/07/05 04:55:58;;;;;;;5.80;2.33;;;16.10;99.90;;;;;;5072150;28;20049;-73
2022/07/05 04:58:24;;;;;;;3.20;2.10;;;16.30;99.90;;;;;;5063819;28;20463;-75
2022/07/05 05:00:49;;;;;;;3.72;1.80;;;16.60;99.90;;;;;;5051730;28;20029;-74
2022/07/05 05:03:15;;;;;;;5.03;1.80;;;16.60;99.90;;;;;;5060520;28;20021;-74
2022/07/05 05:05:41;;;;;;;2.22;1.60;;;16.50;99.90;;;;;;5051026;28;20142;-72
2022/07/05 05:08:06;;;;;;;1.67;1.52;;;16.60;99.90;;;;;;5050856;28;20043;-72
2022/07/05 05:10:32;;;;;;;4.70;1.40;;;16.90;99.90;;;;;;5062984;28;20363;-71
2022/07/05 05:12:57;;;;;;;2.97;1.73;;;17.10;99.90;;;;;;5051106;28;20044;-71
2022/07/05 05:15:23;;;;;;;3.67;1.95;;;17.00;99.90;;;;;;5070201;28;20028;-71
2022/07/05 05:17:49;;;;;;;2.85;1.70;;;17.20;99.90;;;;;;5051931;28;20491;-71
2022/07/05 05:20:16;;;;;;;5.20;1.85;;;17.10;99.90;;;;;;5065670;28;20031;-71
2022/07/05 05:22:43;;;;;;;3.38;1.83;;;17.20;99.90;;;;;;5071578;28;20024;-71
2022/07/05 05:25:09;;;;;;;4.75;1.75;;;17.10;99.90;;;;;;5055764;28;20104;-71
2022/07/05 05:27:39;;;;;;;4.47;1.98;;;17.20;99.90;;;;;;5051750;28;20029;-72
2022/07/05 05:30:05;;;;;;;3.03;1.90;;;17.20;99.90;;;;;;5054600;28;20049;-71
2022/07/05 05:32:31;;;;;;;3.45;2.00;;;17.20;99.90;;;;;;5061788;28;20032;-71
2022/07/05 05:34:56;;;;;;;2.33;1.80;;;17.30;99.90;;;;;;5051438;28;20123;-71
2022/07/05 05:37:22;;;;;;;3.03;1.83;;;17.30;99.90;;;;;;5061212;28;20033;-71
2022/07/05 05:39:48;;;;;;;3.28;2.10;;;17.50;99.90;;;;;;5055290;28;20356;-71
2022/07/05 05:42:13;;;;;;;2.42;1.60;;;17.50;99.90;;;;;;5051036;28;20029;-71
2022/07/05 05:44:39;;;;;;;3.30;1.60;;;17.70;99.90;;;;;;5064816;28;20480;-71
2022/07/05 05:47:04;;;;;;;2.47;1.90;;;17.90;99.90;;;;;;5060236;28;20028;-71
2022/07/05 05:49:30;;;;;;;2.72;1.88;;;18.00;99.90;;;;;;5056068;28;20051;-72
2022/07/05 05:51:55;;;;;;;4.75;1.70;;;18.20;99.90;;;;;;5050879;28;20058;-72
2022/07/05 05:54:21;;;;;;;3.55;1.60;;;18.40;99.90;;;;;;5051291;28;20028;-73
2022/07/05 05:56:46;;;;;;;5.32;1.63;;;18.40;99.90;;;;;;5060500;28;20493;-72
2022/07/05 05:59:12;;;;;;;1.67;1.58;;;18.60;99.90;;;;;;5055639;28;20033;-72
2022/07/05 06:01:38;;;;;;;2.78;1.52;;;18.70;99.90;;;;;;5060103;28;20031;-73
2022/07/05 06:04:03;;;;;;;4.20;1.80;;;18.80;99.90;;;;;;5055346;28;20116;-72
2022/07/05 06:06:29;;;;;;;1.85;1.30;;;18.90;99.90;;;;;;5060233;28;20029;-72
2022/07/05 06:08:54;;;;;;;4.18;1.80;;;19.00;99.90;;;;;;5055771;28;20029;-72
2022/07/05 06:11:20;;;;;;;3.90;1.30;;;19.20;99.90;;;;;;5050727;28;20356;-72
2022/07/05 06:13:46;;;;;;;4.15;1.42;;;19.50;99.90;;;;;;5064549;28;20442;-72
2022/07/05 06:16:12;;;;;;;3.05;1.70;;;19.30;99.90;;;;;;5060066;28;20064;-72
2022/07/05 06:18:37;;;;;;;4.53;1.40;;;19.40;99.90;;;;;;5056082;28;20029;-72
2022/07/05 06:21:03;;;;;;;2.88;1.50;;;19.50;99.90;;;;;;5056033;28;20028;-72
2022/07/05 06:23:30;;;;;;;3.42;1.52;;;19.70;99.90;;;;;;5057851;28;20380;-72
2022/07/05 06:25:55;;;;;;;3.22;1.60;;;19.80;99.90;;;;;;5044565;28;20017;-73
2022/07/05 06:28:21;;;;;;;6.97;1.58;;;19.80;99.90;;;;;;5064582;28;20025;-72
2022/07/05 06:30:46;;;;;;;3.00;1.60;;;19.80;99.90;;;;;;5059352;28;20021;-72
2022/07/05 06:33:12;;;;;;;2.17;1.30;;;19.80;99.90;;;;;;5057388;28;20036;-72
2022/07/05 06:35:38;;;;;;;3.25;1.30;;;20.10;99.90;;;;;;5062524;28;20024;-72
2022/07/05 06:38:06;;;;;;;3.75;1.48;;;20.20;99.90;;;;;;5050968;28;20029;-72
2022/07/05 06:40:38;;;;;;;2.72;1.30;;;20.40;99.90;;;;;;5059268;28;20043;-72
2022/07/05 06:43:06;;;;;;;2.90;1.55;;;20.50;99.90;;;;;;5057442;28;20487;-72
2022/07/05 06:45:32;;;;;;;2.65;1.10;;;20.50;99.90;;;;;;5053082;28;20043;-72
2022/07/05 06:48:02;;;;;;;2.22;1.30;;;20.80;99.90;;;;;;5057565;28;20119;-72
2022/07/05 06:50:30;;;;;;;3.63;1.52;;;20.90;99.90;;;;;;5070416;28;20053;-72
2022/07/05 06:52:56;;;;;;;2.45;1.55;;;20.90;99.90;;;;;;5053461;28;20059;-72
2022/07/05 06:55:23;;;;;;;2.88;1.30;;;21.00;99.90;;;;;;5061596;28;20056;-72
2022/07/05 06:57:49;;;;;;;1.65;1.10;;;21.30;99.90;;;;;;5053479;28;20026;-72
2022/07/05 07:00:15;;;;;;;2.42;1.30;;;21.20;99.90;;;;;;5053353;28;20025;-72
2022/07/05 07:02:41;;;;;;;1.92;1.20;;;21.10;99.90;;;;;;5054071;28;20549;-72
2022/07/05 07:05:08;;;;;;;2.88;1.60;;;21.20;99.90;;;;;;5054709;28;20033;-72
2022/07/05 07:10:19;;;;;;;3.95;1.33;;;21.40;99.90;;;;;;5059001;28;20040;-72
2022/07/05 07:12:44;;;;;;;1.77;1.00;;;21.30;99.90;;;;;;5043098;28;20024;-72
2022/07/05 07:15:10;;;;;;;2.78;1.15;;;21.30;99.90;;;;;;5060982;28;20074;-72
2022/07/05 07:17:36;;;;;;;1.95;1.30;;;21.50;99.90;;;;;;5067784;28;20139;-72
2022/07/05 07:20:02;;;;;;;2.28;1.23;;;21.50;99.90;;;;;;5067360;28;20032;-72
2022/07/05 07:22:28;;;;;;;4.13;1.30;;;22.00;99.90;;;;;;5059971;28;20020;-72
2022/07/05 07:24:54;;;;;;;3.35;1.10;;;22.00;99.90;;;;;;5060750;28;20029;-72
2022/07/05 07:27:19;;;;;;;1.63;0.98;;;22.10;99.90;;;;;;5067382;28;20499;-72
2022/07/05 07:29:45;;;;;;;2.47;1.30;;;22.10;99.90;;;;;;5066789;28;20024;-72
2022/07/05 07:32:11;;;;;;;1.83;1.20;;;22.00;99.90;;;;;;5067118;28;20104;-73
2022/07/05 07:34:37;;;;;;;3.65;1.20;;;22.00;99.90;;;;;;5066469;28;20032;-72
2022/07/05 07:37:04;;;;;;;1.45;1.02;;;22.20;99.90;;;;;;5038946;28;20032;-72
2022/07/05 07:39:31;;;;;;;1.63;1.23;;;22.20;99.90;;;;;;5066588;28;20099;-72
2022/07/05 07:41:57;;;;;;;3.47;1.33;;;22.30;99.90;;;;;;5066917;28;20021;-72
2022/07/05 07:44:23;;;;;;;1.88;1.20;;;22.50;99.90;;;;;;5048477;28;20029;-72
2022/07/05 07:46:49;;;;;;;5.03;1.50;;;22.50;99.90;;;;;;5059903;28;20501;-72
2022/07/05 07:49:14;;;;;;;2.15;1.10;;;22.50;99.90;;;;;;5061174;28;20025;-72
2022/07/05 07:51:40;;;;;;;3.83;1.40;;;22.60;99.90;;;;;;5048255;28;20017;-72
2022/07/05 07:54:06;;;;;;;3.38;1.40;;;22.70;99.90;;;;;;5048096;28;20024;-72
2022/07/05 07:56:32;;;;;;;6.18;1.40;;;22.70;99.90;;;;;;5054172;28;20025;-72
2022/07/05 07:58:58;;;;;;;3.70;1.40;;;22.80;99.90;;;;;;5053384;28;20036;-72
2022/07/05 08:01:24;;;;;;;3.80;1.35;;;22.90;99.80;;;;;;5052712;28;20368;-72
2022/07/05 08:03:50;;;;;;;3.42;1.40;;;23.00;98.20;;;;;;5053224;28;20048;-72
2022/07/05 08:06:15;;;;;;;2.67;1.20;;;22.90;98.40;;;;;;5052432;28;20058;-72
2022/07/05 08:08:44;;;;;;;2.85;1.10;;;22.80;98.60;;;;;;5041072;28;20025;-72
2022/07/05 08:11:11;;;;;;;2.13;1.27;;;23.00;99.10;;;;;;5063236;28;20495;-72
2022/07/05 08:13:37;;;;;;;3.38;1.20;;;23.20;98.30;;;;;;5043056;28;20047;-72
2022/07/05 08:16:03;;;;;;;6.32;1.23;;;23.30;98.40;;;;;;5073036;28;20029;-73
2022/07/05 08:21:31;;;;;;;4.43;1.42;;;23.50;98.30;;;;;;5062007;28;20028;-72
2022/07/05 08:24:08;;;;;;;1.73;1.10;;;23.60;97.60;;;;;;5059333;28;20054;-72
2022/07/05 08:26:35;;;;;;;4.13;1.60;;;23.70;97.50;;;;;;5059819;28;20566;-72
2022/07/05 08:29:02;;;;;;;1.52;1.10;;;24.00;97.60;;;;;;5052969;28;20483;-72
2022/07/05 08:31:30;;;;;;;2.10;1.30;;;23.70;95.70;;;;;;5052494;28;20044;-72
2022/07/05 08:33:56;;;;;;;1.98;1.10;;;23.60;95.90;;;;;;5065164;28;20083;-72
2022/07/05 08:36:23;;;;;;;1.52;1.20;;;23.60;95.70;;;;;;5065889;28;20029;-72
2022/07/05 08:38:49;;;;;;;2.28;1.20;;;23.70;95.40;;;;;;5052663;28;20033;-72
2022/07/05 08:41:17;;;;;;;2.55;1.13;;;23.70;95.10;;;;;;5065580;28;20082;-72
2022/07/05 08:43:45;;;;;;;3.30;1.02;;;23.60;94.30;;;;;;5060340;28;20064;-72
2022/07/05 08:46:13;;;;;;;1.92;1.40;;;23.90;94.30;;;;;;5071244;28;20059;-72
2022/07/05 08:48:43;;;;;;;4.63;1.20;;;23.90;95.20;;;;;;5042587;28;20088;-72
2022/07/05 08:51:14;;;;;;;3.10;0.98;;;23.70;94.40;;;;;;5037933;28;20056;-72
2022/07/05 08:53:40;;;;;;;4.32;1.50;;;23.80;94.70;;;;;;5060271;28;20029;-73
2022/07/05 08:56:08;;;;;;;5.22;1.50;;;24.10;93.80;;;;;;5069699;28;20025;-72
2022/07/05 08:58:34;;;;;;;2.00;1.13;;;24.10;93.90;;;;;;5061700;28;20025;-72
2022/07/05 09:01:01;;;;;;;9.98;1.95;;;23.90;93.60;;;;;;5063843;28;20028;-72
2022/07/05 09:03:43;;;;;;;3.60;1.05;;;23.90;94.10;;;;;;5044620;28;20047;-72
2022/07/05 09:06:11;;;;;;;1.33;1.13;;;24.30;93.90;;;;;;5051332;28;20078;-72
2022/07/05 09:08:39;;;;;;;4.18;1.70;;;24.60;94.80;;;;;;5065072;28;20078;-72
2022/07/05 09:11:08;;;;;;;4.35;1.20;;;24.20;93.60;;;;;;5070244;28;20023;-72
2022/07/05 09:13:34;;;;;;;3.50;1.40;;;24.60;92.80;;;;;;5052252;28;20094;-72
2022/07/05 09:16:01;;;;;;;2.78;1.00;;;24.80;93.40;;;;;;5072114;28;20128;-71
2022/07/05 09:18:49;;;;;;;2.22;1.30;;;24.80;93.50;;;;;;5071836;28;20032;-74
2022/07/05 09:21:27;;;;;;;1.65;1.20;;;24.90;93.40;;;;;;5060706;28;20017;-73
2022/07/05 09:23:57;;;;;;;5.22;1.30;;;24.80;93.10;;;;;;5057059;28;20667;-73
2022/07/05 09:26:41;;;;;;;2.30;1.48;;;24.50;92.80;;;;;;5059118;28;20124;-72
2022/07/05 09:29:08;;;;;;;2.17;1.10;;;24.50;92.70;;;;;;5060213;28;20028;-72
2022/07/05 09:31:36;;;;;;;3.90;1.20;;;24.70;92.90;;;;;;5040362;28;20017;-72
2022/07/05 09:34:15;;;;;;;2.63;1.00;;;25.00;92.90;;;;;;5048665;28;20033;-72
2022/07/05 09:37:03;;;;;;;4.00;1.33;;;25.40;92.60;;;;;;5053635;28;20078;-72
2022/07/05 09:39:35;;;;;;;1.83;1.30;;;25.30;93.10;;;;;;5042260;28;20024;-72
2022/07/05 09:42:12;;;;;;;1.25;1.10;;;25.30;92.20;;;;;;5043884;28;20053;-73
2022/07/05 09:44:39;;;;;;;1.17;1.08;;;25.60;92.00;;;;;;5064926;28;20760;-72
2022/07/05 09:47:10;;;;;;;2.17;1.40;;;25.90;91.70;;;;;;5051511;28;20027;-72
2022/07/05 09:49:46;;;;;;;3.13;1.13;;;25.30;91.80;;;;;;5067679;28;20112;-72
2022/07/05 09:52:26;;;;;;;1.30;1.17;;;25.30;91.70;;;;;;5071076;28;20265;-72
2022/07/05 09:55:12;;;;;;;3.25;1.20;;;25.50;91.80;;;;;;5071485;28;20021;-72
2022/07/05 09:57:39;;;;;;;1.63;1.08;;;25.10;91.70;;;;;;5058094;28;20071;-73
2022/07/05 10:00:06;;;;;;;1.98;1.20;;;25.40;91.90;;;;;;5062348;28;20033;-72
2022/07/05 10:02:38;;;;;;;2.80;1.20;;;25.40;91.80;;;;;;5050894;28;20103;-73
2022/07/05 10:05:16;;;;;;;2.85;1.05;;;25.80;90.80;;;;;;5051261;28;20154;-73
2022/07/05 10:07:47;;;;;;;1.77;1.30;;;25.40;91.30;;;;;;5051219;28;20031;-73
2022/07/05 10:10:18;;;;;;;2.72;1.23;;;25.00;91.30;;;;;;5063915;28;20520;-72
2022/07/05 10:12:46;;;;;;;2.70;1.13;;;25.50;92.50;;;;;;5064687;28;20115;-73
2022/07/05 10:15:15;;;;;;;3.75;1.10;;;24.80;91.40;;;;;;5064985;28;20533;-73
2022/07/05 10:17:44;;;;;;;2.03;1.10;;;25.30;91.70;;;;;;5063755;28;20041;-73
2022/07/05 10:20:19;;;;;;;2.58;1.30;;;25.00;91.30;;;;;;5049809;28;20056;-73
2022/07/05 10:22:46;;;;;;;1.17;1.08;;;24.70;91.80;;;;;;5040342;28;20454;-73
2022/07/05 10:25:13;;;;;;;1.70;1.20;;;25.10;91.70;;;;;;5063501;28;20021;-72
2022/07/05 10:27:39;;;;;;;1.42;1.00;;;24.50;91.90;;;;;;5051199;28;20036;-72
2022/07/05 10:30:06;;;;;;;1.60;1.13;;;24.90;92.00;;;;;;5064654;28;20021;-72
2022/07/05 10:32:34;;;;;;;2.55;1.25;;;25.00;91.30;;;;;;5050955;28;20374;-72
2022/07/05 10:35:00;;;;;;;4.18;1.27;;;25.50;91.20;;;;;;5052021;28;20382;-73
2022/07/05 10:37:28;;;;;;;2.90;1.17;;;26.00;90.70;;;;;;5057140;28;20025;-72
2022/07/05 10:39:55;;;;;;;3.25;1.20;;;26.00;90.30;;;;;;5058187;28;20036;-73
2022/07/05 10:42:23;;;;;;;3.00;1.13;;;26.00;90.40;;;;;;5064246;28;20024;-72
2022/07/05 10:44:48;;;;;;;1.75;1.25;;;26.50;90.80;;;;;;5057813;28;20383;-72
2022/07/05 10:47:14;;;;;;;3.58;1.30;;;26.30;89.40;;;;;;5054724;28;20025;-72
2022/07/05 10:49:41;;;;;;;3.17;1.42;;;25.20;90.40;;;;;;5067908;28;20025;-73
2022/07/05 10:52:26;;;;;;;1.50;1.40;;;25.10;90.90;;;;;;5054033;28;20021;-72
2022/07/05 10:55:16;;;;;;;1.08;0.98;;;25.30;91.20;;;;;;5047801;28;20031;-72
2022/07/05 10:57:41;;;;;;;1.90;1.20;;;25.00;90.30;;;;;;5058072;28;20029;-72
2022/07/05 11:00:09;;;;;;;2.92;1.23;;;24.80;90.70;;;;;;5064161;28;20039;-72
2022/07/05 11:02:35;;;;;;;1.88;1.20;;;24.90;91.00;;;;;;5070784;28;20108;-72
2022/07/05 11:05:02;;;;;;;2.00;1.15;;;25.30;90.50;;;;;;5054294;28;20076;-73
2022/07/05 11:08:02;;;;;;;5.40;1.27;;;25.80;90.20;;;;;;5053466;28;20021;-72
2022/07/05 11:10:31;;;;;;;15.52;1.90;;;26.30;89.20;;;;;;5061717;28;20009;-73
2022/07/05 11:12:56;;;;;;;8.55;1.48;;;25.70;90.50;;;;;;5048034;28;20022;-73
2022/07/05 11:15:22;;;;;;;47.08;4.15;;;25.20;89.90;;;;;;5052955;28;20055;-73
2022/07/05 11:17:48;;;;;;;30.55;3.55;;;25.10;91.20;;;;;;5052471;28;20029;-73
2022/07/05 11:20:20;;;;;;;4.57;1.60;;;25.10;90.70;;;;;;5053894;28;20028;-73
2022/07/05 11:23:03;;;;;;;2.25;1.25;;;25.10;90.70;;;;;;5064119;28;20565;-73
2022/07/05 11:25:31;;;;;;;3.17;1.10;;;25.50;91.10;;;;;;5073976;28;20056;-72
2022/07/05 11:28:06;;;;;;;2.05;1.17;;;26.30;88.50;;;;;;5074013;28;20031;-72
2022/07/05 11:31:04;;;;;;;1.38;1.10;;;26.90;89.50;;;;;;5066968;28;20021;-73
2022/07/05 11:33:42;;;;;;;2.75;1.30;;;26.70;88.30;;;;;;5053217;28;20037;-72
2022/07/05 11:36:25;;;;;;;3.25;1.02;;;25.60;88.30;;;;;;5066444;28;20028;-72
2022/07/05 11:39:06;;;;;;;2.47;1.30;;;25.50;90.00;;;;;;5042265;28;20025;-72
2022/07/05 11:41:32;;;;;;;2.67;1.30;;;25.30;89.60;;;;;;5053119;28;20487;-72
2022/07/05 11:43:58;;;;;;;2.17;1.27;;;25.80;89.90;;;;;;5053744;28;20043;-73
2022/07/05 11:46:24;;;;;;;2.60;1.08;;;26.40;87.60;;;;;;5052900;28;21987;-72
2022/07/05 11:48:51;;;;;;;2.10;1.13;;;27.10;87.80;;;;;;5064417;28;20055;-73
2022/07/05 11:51:17;;;;;;;4.60;1.60;;;27.70;86.40;;;;;;5059551;28;20033;-72
2022/07/05 11:53:43;;;;;;;1.52;1.02;;;27.10;85.80;;;;;;5062879;28;20035;-72
2022/07/05 11:56:09;;;;;;;14.63;2.22;;;27.00;85.20;;;;;;5067143;28;20029;-72
2022/07/05 11:58:35;;;;;;;35.28;3.17;;;26.70;85.80;;;;;;5064131;28;20035;-72
2022/07/05 12:01:03;;;;;;;3.28;1.20;;;26.20;87.20;;;;;;5059301;28;20028;-72
2022/07/05 12:03:29;;;;;;;1.48;1.10;;;25.90;87.40;;;;;;5073264;28;20052;-72
2022/07/05 12:05:55;;;;;;;1.30;1.20;;;25.90;86.30;;;;;;5059533;28;20596;-72
2022/07/05 12:08:25;;;;;;;1.48;1.27;;;25.80;88.40;;;;;;5073102;28;20063;-72
2022/07/05 12:13:50;;;;;;;4.75;1.38;;;25.60;87.30;;;;;;5044468;28;20060;-72
2022/07/05 12:16:16;;;;;;;4.68;2.28;;;27.00;84.90;;;;;;5059315;28;20100;-72
2022/07/05 12:18:55;;;;;;;2.42;1.33;;;26.80;84.50;;;;;;5054182;28;20031;-73
2022/07/05 12:21:23;;;;;;;2.05;1.17;;;26.50;83.70;;;;;;5052483;28;20099;-72
2022/07/05 12:23:50;;;;;;;2.25;1.10;;;26.30;84.40;;;;;;5052765;28;20094;-72
2022/07/05 12:26:17;;;;;;;1.83;1.00;;;26.60;85.40;;;;;;5052930;28;20747;-72
2022/07/05 12:28:43;;;;;;;2.50;1.05;;;26.30;85.40;;;;;;5066351;28;20041;-73
2022/07/05 12:31:21;;;;;;;2.78;0.93;;;25.90;84.80;;;;;;5051900;28;20025;-73
2022/07/05 12:33:47;;;;;;;1.85;1.15;;;25.90;85.30;;;;;;5044037;28;20604;-73
2022/07/05 12:36:14;;;;;;;1.73;1.05;;;26.10;85.10;;;;;;5045245;28;20075;-72
2022/07/05 12:38:40;;;;;;;3.35;1.20;;;26.20;85.10;;;;;;5058932;28;20104;-73
2022/07/05 12:41:06;;;;;;;3.10;1.33;;;27.00;83.90;;;;;;5059259;28;20095;-72
2022/07/05 12:43:32;;;;;;;2.70;0.95;;;26.60;82.60;;;;;;5050540;28;20360;-72
2022/07/05 12:45:59;;;;;;;3.10;1.10;;;26.40;83.40;;;;;;5056450;28;20480;-72
2022/07/05 12:48:52;;;;;;;3.00;1.10;;;26.00;85.00;;;;;;5058660;28;20111;-72
2022/07/05 12:51:40;;;;;;;1.25;1.05;;;25.60;85.90;;;;;;5056214;28;20087;-72
2022/07/05 12:59:37;;;;;;;3.10;1.17;;;26.10;85.10;;;;;;5052564;28;20039;-72
2022/07/05 13:02:04;;;;;;;1.85;1.15;;;26.20;84.20;;;;;;5051655;28;20045;-73